Decoded Metar for YABA ( in ) (IATA:) | Meteo·Mobile Aviation Weather
aviador You're here:

YABA Decoded Metar

in
Report Time2018-08-22 04:00:00
UTC Time2018-08-22 04:31:10
Flight Rules vfr VFR
Wind210° at 12 kt
W.Decomp.*RWY 23: 11.3 kt HW 4.1 kt LCW
RWY 14: 4.1 kt HW 11.3 kt RCW
W.Rank210° ranks 18
Current wind is above 210° avg. (9.7)
Visibility9999 m
Phenomena:N/A
Clouds:Scattered 030 Hf
Broken 038 Hf
Overcast 046 Hf
Expected CloudBase > 2,000 ft AGL from Temp-Dew spread
Ceiling3,800 ft
Temp13°C
Dew Point08°C (72% RH)
AAT8.2°C
QNH1022 hPa
Raw Report
METAR YABA 220400Z AUTO 21012KT 9999 // SCT030 BKN038 OVC046 13/08 Q1022=

Extra information for YABA:More info

Social comments